OLBA/BEY METAR and TAF weather

Enter ICAO airport designator
Station Type Date Time Source
OLBA METAR 2020/12/05 06:00 UTC NOAA

OLBA 050600Z 09008KT 060V120 8000 BKN026 19/10 Q1015 NOSIG


Station Type Date Time Source
OLBA Decoded METAR 2020/12/05 06:00 UTC NOAA

Beyrouth Aeroport , Lebanon (OLBA) 33-49N 035-29E 19M
Dec 05, 2020 - 01:00 AM EST / 2020.12.05 0600 UTC
Wind: from the E (090 degrees) at 9 MPH (8 KT) (direction variable):0
Visibility: 4 mile(s):0
Sky conditions: mostly cloudy
Temperature: 66 F (19 C)
Dew Point: 50 F (10 C)
Relative Humidity: 55%
Pressure (altimeter): 29.97 in. Hg (1015 hPa)
ob: OLBA 050600Z 09008KT 060V120 8000 BKN026 19/10 Q1015 NOSIG
cycle: 6

Station Type Date Time Source
OLBA TAF 2020/12/05 06:03 UTC NOAA

TAF TAF OLBA 050400Z 0506/0612 23010G20KT 8000 BKN024
TEMPO 0506/0612 5000 -RA
TEMPO 0506/0518 23015G30KT 4000 TSRA FEW020CB BKN022
BECMG 0521/0524 VRB03KT
BECMG 0608/0610 23010G20KT

Example: see airport list